Ali Cat — MZCL8 — position and weather

sailwx.info

Track history (hours):
 
Tides and Currents Weather Stations Pressure Air Temp Water Temp Dewpoint Dewpoint Depression Visibility Wind Speed Wind Dir Waves Ship Positions

Ali Cat

Operator: MRCC Clyde

Last reported at 2017-Dec-11 16:39 UTC. Time now 2017-Dec-14 15:04 UTC.
Position N 55°58' W 004°49'.

Length 19 m.

Type: Passenger vessel. MMSI: 235056506.

Date/timePositionNaut miles runAvg speedWind from/ knotsBaromVisibWave heightAir tempDewpointWater temp
2017-Dec-11 16:39N 55°58' W 004°49'211.5
2017-Dec-11 16:30N 55°57' W 004°52'1 0.5
2017-Dec-11 15:04N 55°57' W 004°51'110.2
2017-Dec-11 15:00N 55°57' W 004°52'1 1.1
2017-Dec-11 14:06N 55°58' W 004°51'210.3
2017-Dec-11 13:54N 55°57' W 004°54'3 2.3
2017-Dec-11 12:40N 55°58' W 004°49'210.7
2017-Dec-11 12:30N 55°57' W 004°52'2 2.1
2017-Dec-11 11:41N 55°58' W 004°49'210.5
2017-Dec-11 11:30N 55°57' W 004°53'2 2.1
2017-Dec-11 10:40N 55°58' W 004°50'2 9.9
2017-Dec-11 10:30N 55°57' W 004°52'1 2.6
2017-Dec-11 09:56N 55°58' W 004°50'2 3.4
2017-Dec-11 09:29N 55°57' W 004°53'1 1.3
2017-Dec-11 08:36N 55°58' W 004°51'110.4
2017-Dec-11 08:29N 55°57' W 004°53'1 1.5
2017-Dec-11 07:59N 55°58' W 004°52'0 0.8
2017-Dec-11 07:30N 55°57' W 004°51'1 0.0
2017-Dec-10 17:06N 55°58' W 004°50'111.7
2017-Dec-10 17:00N 55°57' W 004°52'0 0.1
2017-Dec-10 09:44N 55°57' W 004°51'2 9.7
2017-Dec-10 09:29N 55°57' W 004°55'0 0.0
2017-Dec-10 08:55N 55°57' W 004°55'3 0.2
2017-Dec-09 21:53N 55°58' W 004°51'0 0.3
2017-Dec-09 20:33N 55°57' W 004°52'110.3
2017-Dec-09 20:28N 55°57' W 004°53'1 1.1
2017-Dec-09 19:21N 55°57' W 004°55'2 2.4
2017-Dec-09 18:31N 55°57' W 004°52'010.6
2017-Dec-09 18:30N 55°57' W 004°52'0 0.4
2017-Dec-09 17:33N 55°57' W 004°51'110.8
2017-Dec-09 17:25N 55°57' W 004°54'2 2.7
2017-Dec-09 16:37N 55°58' W 004°50'110.9
2017-Dec-09 16:30N 55°57' W 004°52'1 0.1
2017-Dec-09 12:34N 55°57' W 004°51'110.3
2017-Dec-09 12:28N 55°57' W 004°53'1 1.0
2017-Dec-09 11:33N 55°57' W 004°51'110.7
2017-Dec-09 11:30N 55°57' W 004°52'0 0.4
2017-Dec-09 10:32N 55°57' W 004°52'110.2
2017-Dec-09 10:26N 55°57' W 004°54'2 2.8
2017-Dec-09 09:38N 55°58' W 004°50'210.7
2017-Dec-09 09:27N 55°57' W 004°53'2 1.9
2017-Dec-09 08:37N 55°58' W 004°50'210.7
2017-Dec-09 08:28N 55°57' W 004°53'1 1.5
2017-Dec-09 07:31N 55°57' W 004°51'110.3
2017-Dec-09 07:24N 55°57' W 004°53'1 0.1
2017-Dec-08 21:46N 55°57' W 004°54'2 2.2
2017-Dec-08 20:40N 55°58' W 004°49'210.6
2017-Dec-08 20:31N 55°57' W 004°52'0 0.2
2017-Dec-08 19:31N 55°57' W 004°52'1 1.5
2017-Dec-08 18:41N 55°58' W 004°50'2 9.4
2017-Dec-08 18:30N 55°57' W 004°53'2 2.2
2017-Dec-08 17:39N 55°58' W 004°50'210.7
2017-Dec-08 17:30N 55°57' W 004°52'0 0.1
2017-Dec-08 16:30N 55°57' W 004°52'0 0.3
2017-Dec-08 15:02N 55°57' W 004°52'111.3
2017-Dec-08 14:59N 55°57' W 004°53'1 0.6
2017-Dec-08 14:02N 55°57' W 004°52'110.5
2017-Dec-08 13:59N 55°57' W 004°52'1 0.7
2017-Dec-08 12:35N 55°58' W 004°51'110.3
2017-Dec-08 12:27N 55°57' W 004°53'1 1.3
2017-Dec-08 11:34N 55°58' W 004°51'110.4
2017-Dec-08 11:29N 55°57' W 004°53'1 1.0
2017-Dec-08 10:34N 55°58' W 004°51'110.9
2017-Dec-08 10:26N 55°57' W 004°53'1 1.2
2017-Dec-08 09:32N 55°57' W 004°52'110.8
2017-Dec-08 09:25N 55°57' W 004°54'0 0.1
2017-Dec-08 08:26N 55°57' W 004°54'3 3.1
2017-Dec-08 07:36N 55°58' W 004°49'110.4
2017-Dec-08 07:29N 55°57' W 004°51'1 0.1
2017-Dec-07 21:48N 55°57' W 004°53'0 1.2
2017-Dec-07 21:29N 55°57' W 004°54'1 1.5
2017-Dec-07 20:32N 55°57' W 004°51'112.2
2017-Dec-07 20:28N 55°57' W 004°53'1 1.7
2017-Dec-07 19:36N 55°58' W 004°51'210.6
2017-Dec-07 19:27N 55°57' W 004°53'1 1.5
2017-Dec-07 18:34N 55°57' W 004°51'111.0
2017-Dec-07 18:30N 55°57' W 004°52'0 0.3
2017-Dec-07 17:31N 55°57' W 004°52'210.5
2017-Dec-07 17:22N 55°57' W 004°55'2 2.2
2017-Dec-07 16:33N 55°57' W 004°52'111.3
2017-Dec-07 16:30N 55°57' W 004°53'  
2017-Dec-04 10:27N 55°57' W 004°53'1 1.1
2017-Dec-04 09:33N 55°58' W 004°52'111.1
2017-Dec-04 09:28N 55°57' W 004°53'0 0.3
2017-Dec-04 08:30N 55°57' W 004°53'1 0.9
2017-Dec-04 07:29N 55°57' W 004°51'1 0.1
2017-Dec-03 17:56N 55°57' W 004°54'1 1.3
2017-Dec-03 17:03N 55°57' W 004°52'110.6
2017-Dec-03 16:57N 55°57' W 004°53'1 0.8
2017-Dec-03 16:02N 55°57' W 004°52'110.3
2017-Dec-03 15:55N 55°57' W 004°54'2 2.2
2017-Dec-03 15:06N 55°58' W 004°51'210.3
2017-Dec-03 14:57N 55°57' W 004°54'0 0.2
2017-Dec-03 13:57N 55°57' W 004°53'1 1.5
2017-Dec-03 13:05N 55°57' W 004°51'110.2
2017-Dec-03 13:00N 55°57' W 004°52'1 0.7
2017-Dec-03 12:04N 55°57' W 004°51'110.4
2017-Dec-03 12:00N 55°57' W 004°53'0 0.3
2017-Dec-03 11:01N 55°57' W 004°52'110.6
2017-Dec-03 10:58N 55°57' W 004°53'1 0.1
2017-Dec-02 21:53N 55°58' W 004°51'1 0.6
2017-Dec-02 20:29N 55°57' W 004°53'0 0.3
2017-Dec-02 19:28N 55°57' W 004°53'1 1.5
2017-Dec-02 18:35N 55°58' W 004°51'110.9
2017-Dec-02 18:29N 55°57' W 004°53'1 1.5
2017-Dec-02 17:36N 55°58' W 004°50'111.0
2017-Dec-02 17:30N 55°57' W 004°52'1 0.7
2017-Dec-02 16:34N 55°58' W 004°51'111.0
2017-Dec-02 16:29N 55°57' W 004°53'2 0.5
2017-Dec-02 12:42N 55°58' W 004°49'210.3
2017-Dec-02 12:30N 55°57' W 004°53'0 0.4
2017-Dec-02 11:32N 55°57' W 004°52'010.5
2017-Dec-02 11:30N 55°57' W 004°53'1 1.0
2017-Dec-02 10:35N 55°57' W 004°51'110.8
2017-Dec-02 10:30N 55°57' W 004°53'2 2.1
2017-Dec-02 09:40N 55°58' W 004°50'210.8
2017-Dec-02 09:31N 55°57' W 004°52'2 2.3
2017-Dec-02 08:41N 55°58' W 004°49'210.9
2017-Dec-02 08:29N 55°57' W 004°53'1 0.9
2017-Dec-02 07:29N 55°57' W 004°51'0 0.0
2017-Dec-01 21:52N 55°57' W 004°52'1 3.6
2017-Dec-01 21:29N 55°57' W 004°54'2 2.6
2017-Dec-01 20:36N 55°58' W 004°50'110.7
2017-Dec-01 20:30N 55°57' W 004°52'0 0.5
2017-Dec-01 19:33N 55°58' W 004°51'110.8
2017-Dec-01 19:29N 55°57' W 004°53'1 0.9
2017-Dec-01 18:33N 55°58' W 004°51'110.9
2017-Dec-01 18:29N 55°57' W 004°53'1 0.8
2017-Dec-01 17:33N 55°58' W 004°51'110.7
2017-Dec-01 17:30N 55°57' W 004°52'  
Track history (hours):
 
Tides and Currents Weather Stations Pressure Air Temp Water Temp Dewpoint Dewpoint Depression Visibility Wind Speed Wind Dir Waves Ship Positions

Ali Cat

Operator: MRCC Clyde

Last reported at 2017-Dec-11 16:39 UTC. Time now 2017-Dec-14 15:04 UTC.
Position N 55°58' W 004°49'.

Length 19 m.

Type: Passenger vessel. MMSI: 235056506.

Date/timePositionNaut miles runAvg speedWind from/ knotsBaromVisibWave heightAir tempDewpointWater temp
2017-Dec-11 16:39N 55°58' W 004°49'211.5
2017-Dec-11 16:30N 55°57' W 004°52'1 0.5
2017-Dec-11 15:04N 55°57' W 004°51'110.2
2017-Dec-11 15:00N 55°57' W 004°52'1 1.1
2017-Dec-11 14:06N 55°58' W 004°51'210.3
2017-Dec-11 13:54N 55°57' W 004°54'3 2.3
2017-Dec-11 12:40N 55°58' W 004°49'210.7
2017-Dec-11 12:30N 55°57' W 004°52'2 2.1
2017-Dec-11 11:41N 55°58' W 004°49'210.5
2017-Dec-11 11:30N 55°57' W 004°53'2 2.1
2017-Dec-11 10:40N 55°58' W 004°50'2 9.9
2017-Dec-11 10:30N 55°57' W 004°52'1 2.6
2017-Dec-11 09:56N 55°58' W 004°50'2 3.4
2017-Dec-11 09:29N 55°57' W 004°53'1 1.3
2017-Dec-11 08:36N 55°58' W 004°51'110.4
2017-Dec-11 08:29N 55°57' W 004°53'1 1.5
2017-Dec-11 07:59N 55°58' W 004°52'0 0.8
2017-Dec-11 07:30N 55°57' W 004°51'1 0.0
2017-Dec-10 17:06N 55°58' W 004°50'111.7
2017-Dec-10 17:00N 55°57' W 004°52'0 0.1
2017-Dec-10 09:44N 55°57' W 004°51'2 9.7
2017-Dec-10 09:29N 55°57' W 004°55'0 0.0
2017-Dec-10 08:55N 55°57' W 004°55'3 0.2
2017-Dec-09 21:53N 55°58' W 004°51'0 0.3
2017-Dec-09 20:33N 55°57' W 004°52'110.3
2017-Dec-09 20:28N 55°57' W 004°53'1 1.1
2017-Dec-09 19:21N 55°57' W 004°55'2 2.4
2017-Dec-09 18:31N 55°57' W 004°52'010.6
2017-Dec-09 18:30N 55°57' W 004°52'0 0.4
2017-Dec-09 17:33N 55°57' W 004°51'110.8
2017-Dec-09 17:25N 55°57' W 004°54'2 2.7
2017-Dec-09 16:37N 55°58' W 004°50'110.9
2017-Dec-09 16:30N 55°57' W 004°52'1 0.1
2017-Dec-09 12:34N 55°57' W 004°51'110.3
2017-Dec-09 12:28N 55°57' W 004°53'1 1.0
2017-Dec-09 11:33N 55°57' W 004°51'110.7
2017-Dec-09 11:30N 55°57' W 004°52'0 0.4
2017-Dec-09 10:32N 55°57' W 004°52'110.2
2017-Dec-09 10:26N 55°57' W 004°54'2 2.8
2017-Dec-09 09:38N 55°58' W 004°50'210.7
2017-Dec-09 09:27N 55°57' W 004°53'2 1.9
2017-Dec-09 08:37N 55°58' W 004°50'210.7
2017-Dec-09 08:28N 55°57' W 004°53'1 1.5
2017-Dec-09 07:31N 55°57' W 004°51'110.3
2017-Dec-09 07:24N 55°57' W 004°53'1 0.1
2017-Dec-08 21:46N 55°57' W 004°54'2 2.2
2017-Dec-08 20:40N 55°58' W 004°49'210.6
2017-Dec-08 20:31N 55°57' W 004°52'0 0.2
2017-Dec-08 19:31N 55°57' W 004°52'1 1.5
2017-Dec-08 18:41N 55°58' W 004°50'2 9.4
2017-Dec-08 18:30N 55°57' W 004°53'2 2.2
2017-Dec-08 17:39N 55°58' W 004°50'210.7
2017-Dec-08 17:30N 55°57' W 004°52'0 0.1
2017-Dec-08 16:30N 55°57' W 004°52'0 0.3
2017-Dec-08 15:02N 55°57' W 004°52'111.3
2017-Dec-08 14:59N 55°57' W 004°53'1 0.6
2017-Dec-08 14:02N 55°57' W 004°52'110.5
2017-Dec-08 13:59N 55°57' W 004°52'1 0.7
2017-Dec-08 12:35N 55°58' W 004°51'110.3
2017-Dec-08 12:27N 55°57' W 004°53'1 1.3
2017-Dec-08 11:34N 55°58' W 004°51'110.4
2017-Dec-08 11:29N 55°57' W 004°53'1 1.0
2017-Dec-08 10:34N 55°58' W 004°51'110.9
2017-Dec-08 10:26N 55°57' W 004°53'1 1.2
2017-Dec-08 09:32N 55°57' W 004°52'110.8
2017-Dec-08 09:25N 55°57' W 004°54'0 0.1
2017-Dec-08 08:26N 55°57' W 004°54'3 3.1
2017-Dec-08 07:36N 55°58' W 004°49'110.4
2017-Dec-08 07:29N 55°57' W 004°51'1 0.1
2017-Dec-07 21:48N 55°57' W 004°53'0 1.2
2017-Dec-07 21:29N 55°57' W 004°54'1 1.5
2017-Dec-07 20:32N 55°57' W 004°51'112.2
2017-Dec-07 20:28N 55°57' W 004°53'1 1.7
2017-Dec-07 19:36N 55°58' W 004°51'210.6
2017-Dec-07 19:27N 55°57' W 004°53'1 1.5
2017-Dec-07 18:34N 55°57' W 004°51'111.0
2017-Dec-07 18:30N 55°57' W 004°52'0 0.3
2017-Dec-07 17:31N 55°57' W 004°52'210.5
2017-Dec-07 17:22N 55°57' W 004°55'2 2.2
2017-Dec-07 16:33N 55°57' W 004°52'111.3
2017-Dec-07 16:30N 55°57' W 004°53'  
2017-Dec-04 10:27N 55°57' W 004°53'1 1.1
2017-Dec-04 09:33N 55°58' W 004°52'111.1
2017-Dec-04 09:28N 55°57' W 004°53'0 0.3
2017-Dec-04 08:30N 55°57' W 004°53'1 0.9
2017-Dec-04 07:29N 55°57' W 004°51'1 0.1
2017-Dec-03 17:56N 55°57' W 004°54'1 1.3
2017-Dec-03 17:03N 55°57' W 004°52'110.6
2017-Dec-03 16:57N 55°57' W 004°53'1 0.8
2017-Dec-03 16:02N 55°57' W 004°52'110.3
2017-Dec-03 15:55N 55°57' W 004°54'2 2.2
2017-Dec-03 15:06N 55°58' W 004°51'210.3
2017-Dec-03 14:57N 55°57' W 004°54'0 0.2
2017-Dec-03 13:57N 55°57' W 004°53'1 1.5
2017-Dec-03 13:05N 55°57' W 004°51'110.2
2017-Dec-03 13:00N 55°57' W 004°52'1 0.7
2017-Dec-03 12:04N 55°57' W 004°51'110.4
2017-Dec-03 12:00N 55°57' W 004°53'0 0.3
2017-Dec-03 11:01N 55°57' W 004°52'110.6
2017-Dec-03 10:58N 55°57' W 004°53'1 0.1
2017-Dec-02 21:53N 55°58' W 004°51'1 0.6
2017-Dec-02 20:29N 55°57' W 004°53'0 0.3
2017-Dec-02 19:28N 55°57' W 004°53'1 1.5
2017-Dec-02 18:35N 55°58' W 004°51'110.9
2017-Dec-02 18:29N 55°57' W 004°53'1 1.5
2017-Dec-02 17:36N 55°58' W 004°50'111.0
2017-Dec-02 17:30N 55°57' W 004°52'1 0.7
2017-Dec-02 16:34N 55°58' W 004°51'111.0
2017-Dec-02 16:29N 55°57' W 004°53'2 0.5
2017-Dec-02 12:42N 55°58' W 004°49'210.3
2017-Dec-02 12:30N 55°57' W 004°53'0 0.4
2017-Dec-02 11:32N 55°57' W 004°52'010.5
2017-Dec-02 11:30N 55°57' W 004°53'1 1.0
2017-Dec-02 10:35N 55°57' W 004°51'110.8
2017-Dec-02 10:30N 55°57' W 004°53'2 2.1
2017-Dec-02 09:40N 55°58' W 004°50'210.8
2017-Dec-02 09:31N 55°57' W 004°52'2 2.3
2017-Dec-02 08:41N 55°58' W 004°49'210.9
2017-Dec-02 08:29N 55°57' W 004°53'1 0.9
2017-Dec-02 07:29N 55°57' W 004°51'0 0.0
2017-Dec-01 21:52N 55°57' W 004°52'1 3.6
2017-Dec-01 21:29N 55°57' W 004°54'2 2.6
2017-Dec-01 20:36N 55°58' W 004°50'110.7
2017-Dec-01 20:30N 55°57' W 004°52'0 0.5
2017-Dec-01 19:33N 55°58' W 004°51'110.8
2017-Dec-01 19:29N 55°57' W 004°53'1 0.9
2017-Dec-01 18:33N 55°58' W 004°51'110.9
2017-Dec-01 18:29N 55°57' W 004°53'1 0.8
2017-Dec-01 17:33N 55°58' W 004°51'110.7
2017-Dec-01 17:30N 55°57' W 004°52'  

Dump ship's entire track history